createdAt,value
2023-03-22T00:01:08.967Z,100718.63
2023-03-22T00:06:11.144Z,100717.75
2023-03-22T00:11:15.275Z,100709.81
2023-03-22T00:16:22.568Z,100703.59
2023-03-22T00:21:24.846Z,100712.41
2023-03-22T00:26:26.712Z,100705.31
2023-03-22T00:31:30.200Z,100700.94
2023-03-22T00:36:32.362Z,100697.44
2023-03-22T00:41:34.446Z,100691.28
2023-03-22T00:46:37.946Z,100690.41
2023-03-22T00:51:39.971Z,100696.63
2023-03-22T00:56:42.107Z,100692.28
2023-03-22T01:01:45.907Z,100680.81
2023-03-22T01:06:48.164Z,100681.69
2023-03-22T01:11:50.302Z,100668.50
2023-03-22T01:16:57.182Z,100668.53
2023-03-22T01:21:58.988Z,100661.50
2023-03-22T01:27:01.113Z,100652.69
2023-03-22T01:32:05.044Z,100650.16
2023-03-22T01:37:07.294Z,100661.63
2023-03-22T01:42:13.455Z,100652.88
2023-03-22T01:47:17.265Z,100643.22
2023-03-22T01:52:19.663Z,100639.69
2023-03-22T01:57:29.862Z,100637.09
2023-03-22T02:02:33.563Z,100635.31
2023-03-22T02:07:37.112Z,100635.38
2023-03-22T02:12:50.720Z,100616.03
2023-03-22T02:18:12.464Z,100620.44
2023-03-22T02:23:47.146Z,100621.34
2023-03-22T02:28:55.584Z,100620.47
2023-03-22T02:34:40.853Z,100616.06
2023-03-22T02:39:51.648Z,100622.25
2023-03-22T02:45:00.065Z,100625.75
2023-03-22T02:50:08.963Z,100622.25
2023-03-22T02:55:18.677Z,100613.41
2023-03-22T03:00:20.787Z,100611.69
2023-03-22T03:05:25.413Z,100619.66
2023-03-22T03:10:30.081Z,100622.31
2023-03-22T03:15:32.733Z,100616.16
2023-03-22T03:20:44.621Z,100608.22
2023-03-22T03:25:57.377Z,100602.06
2023-03-22T03:31:05.602Z,100599.47
2023-03-22T03:36:11.624Z,100610.03
2023-03-22T03:41:17.874Z,100603.88
2023-03-22T03:46:21.577Z,100605.66
2023-03-22T03:51:24.057Z,100601.19
2023-03-22T03:56:27.583Z,100606.47
2023-03-22T04:01:29.742Z,100616.16
2023-03-22T04:06:32.069Z,100610.03
2023-03-22T04:11:37.838Z,100611.78
2023-03-22T04:16:39.983Z,100597.69
2023-03-22T04:21:42.271Z,100606.47
2023-03-22T04:26:45.922Z,100602.97
2023-03-22T04:31:47.958Z,100615.31
2023-03-22T04:36:50.203Z,100596.81
2023-03-22T04:41:53.671Z,100596.81
2023-03-22T04:46:55.812Z,100595.03
2023-03-22T04:51:58.752Z,100593.25
2023-03-22T04:57:02.394Z,100592.41
2023-03-22T05:02:04.578Z,100580.94
2023-03-22T05:07:12.988Z,100585.38
2023-03-22T05:12:16.569Z,100566.88
2023-03-22T05:17:18.776Z,100566.88
2023-03-22T05:22:21.131Z,100571.25
2023-03-22T05:27:24.541Z,100574.81
2023-03-22T05:32:26.863Z,100574.81
2023-03-22T05:37:28.790Z,100570.38
2023-03-22T05:42:34.486Z,100573.03
2023-03-22T05:47:36.608Z,100574.81
2023-03-22T05:52:38.911Z,100567.75
2023-03-22T05:57:42.311Z,100560.63
2023-03-22T06:02:47.057Z,100549.19
2023-03-22T06:07:49.390Z,100554.41
2023-03-22T06:12:53.340Z,100554.38
2023-03-22T06:17:55.485Z,100560.53
2023-03-22T06:22:58.110Z,100567.56
2023-03-22T06:28:01.842Z,100561.34
2023-03-22T06:33:04.194Z,100567.53
2023-03-22T06:38:09.307Z,100563.97
2023-03-22T06:43:12.814Z,100570.94
2023-03-22T06:48:15.181Z,100576.13
2023-03-22T06:53:19.424Z,100576.97
2023-03-22T06:58:23.157Z,100565.38
2023-03-22T07:03:25.272Z,100574.03
2023-03-22T07:08:27.500Z,100580.88
2023-03-22T07:13:31.240Z,100580.69
2023-03-22T07:18:33.312Z,100579.63
2023-03-22T07:23:35.569Z,100577.53
2023-03-22T07:28:38.879Z,100578.06
2023-03-22T07:33:41.545Z,100581.34
2023-03-22T07:38:44.225Z,100569.78
2023-03-22T07:43:55.424Z,100559.97
2023-03-22T07:49:00.401Z,100566.00
2023-03-22T07:54:02.793Z,100562.22
2023-03-22T07:59:06.460Z,100551.31
2023-03-22T08:04:08.574Z,100547.44
2023-03-22T08:09:10.363Z,100539.09
2023-03-22T08:14:13.543Z,100552.03
2023-03-22T08:19:16.056Z,100538.59
2023-03-22T08:24:19.109Z,100545.28
2023-03-22T08:29:25.090Z,100537.22
2023-03-22T08:34:27.882Z,100535.84
2023-03-22T08:39:29.983Z,100533.41
2023-03-22T08:44:33.653Z,100529.06
2023-03-22T08:49:42.107Z,100520.53
2023-03-22T08:54:44.328Z,100511.16
2023-03-22T08:59:47.750Z,100502.94
2023-03-22T09:04:50.859Z,100502.06
2023-03-22T09:09:53.396Z,100483.19
2023-03-22T09:14:57.043Z,100482.72
2023-03-22T09:20:11.501Z,100468.09
2023-03-22T09:25:14.680Z,100475.56
2023-03-22T09:30:18.134Z,100469.31
2023-03-22T09:35:20.240Z,100472.16
2023-03-22T09:40:27.418Z,100488.84
2023-03-22T09:45:38.565Z,100485.25
2023-03-22T09:50:47.555Z,100467.22
2023-03-22T09:55:55.058Z,100467.88
2023-03-22T10:01:03.741Z,100465.13
2023-03-22T10:06:15.874Z,100478.28
2023-03-22T10:11:27.678Z,100465.28
2023-03-22T10:16:34.646Z,100463.47
2023-03-22T10:21:37.458Z,100457.31
2023-03-22T10:26:42.046Z,100446.59
2023-03-22T10:31:45.677Z,100435.53
2023-03-22T10:36:50.704Z,100426.97
2023-03-22T10:41:56.339Z,100410.53
2023-03-22T10:47:03.517Z,100404.56
2023-03-22T10:52:20.581Z,100382.28
2023-03-22T10:57:22.950Z,100400.53
2023-03-22T11:02:28.854Z,100383.69
2023-03-22T11:07:35.134Z,100374.78
2023-03-22T11:12:40.156Z,100388.06
2023-03-22T11:17:44.466Z,100386.59
2023-03-22T11:22:47.655Z,100382.19
2023-03-22T11:27:52.278Z,100397.56
2023-03-22T11:33:09.818Z,100383.34
2023-03-22T11:38:23.520Z,100377.97
2023-03-22T11:43:28.321Z,100375.84
2023-03-22T11:48:34.574Z,100370.13
2023-03-22T11:53:39.594Z,100357.28
2023-03-22T11:58:59.161Z,100356.94
2023-03-22T12:04:08.444Z,100348.78
2023-03-22T12:09:24.672Z,100346.41
2023-03-22T12:14:30.276Z,100339.19
2023-03-22T12:19:58.443Z,100332.16
2023-03-22T12:25:00.588Z,100323.63
2023-03-22T12:30:06.308Z,100308.09
2023-03-22T12:35:17.537Z,100304.91
2023-03-22T12:40:24.538Z,100289.56
2023-03-22T12:45:28.852Z,100302.13
2023-03-22T12:50:39.390Z,100299.88
2023-03-22T12:55:45.215Z,100287.41
2023-03-22T13:00:49.994Z,100278.22
2023-03-22T13:06:02.663Z,100292.91
2023-03-22T13:11:06.061Z,100274.22
2023-03-22T13:16:16.664Z,100273.25
2023-03-22T13:21:21.926Z,100283.63
2023-03-22T13:26:39.179Z,100272.16
2023-03-22T13:31:47.193Z,100280.31
2023-03-22T13:36:55.344Z,100281.47
2023-03-22T13:42:07.165Z,100288.59
2023-03-22T13:47:33.117Z,100261.16
2023-03-22T13:52:40.762Z,100240.69
2023-03-22T13:57:48.867Z,100240.84
2023-03-22T14:02:51.570Z,100243.84
2023-03-22T14:07:57.061Z,100251.44
2023-03-22T14:13:05.148Z,100244.50
2023-03-22T14:18:12.701Z,100236.53
